EZS14EZ LSGG-LEVC
Flight info
| Callsign | EZS14EZ |
|---|---|
| Flight time | 1h 34m |
| Altitude | 37000 |
| Route | BALSI DCT RETNO DCT TUPOX DCT MTG DCT DIVKO DCT NILDU DCT NENDA DCT BCN M985 SOPET |
| Aircraft | A320/M-SDE3FGHIRWY/LB1 |
Departure
| Time | 2026-05-07 13:32 |
|---|---|
| Airport | Geneva International Airport (LSGG) |
Arrival
| Time | 2026-05-07 15:07 |
|---|---|
| Airport | Valencia Airport (LEVC) |
| Time | Latitude | Longitude | Altitude | Speed | Heading |
|---|---|---|---|---|---|
| 2026-05-07 13:17 | 46.23526 | 6.10958 | 1392 ft | 0 kts | 135° |
| 2026-05-07 13:25 | 46.23525 | 6.10959 | 1392 ft | 1 kts | 135° |
| 2026-05-07 13:26 | 46.23485 | 6.11013 | 1398 ft | 4 kts | 146° |
| 2026-05-07 13:26 | 46.23484 | 6.11014 | 1397 ft | 0 kts | 152° |
| 2026-05-07 13:26 | 46.23482 | 6.11013 | 1397 ft | 1 kts | 166° |
| 2026-05-07 13:26 | 46.23449 | 6.10979 | 1400 ft | 12 kts | 219° |
| 2026-05-07 13:27 | 46.23392 | 6.10898 | 1396 ft | 11 kts | 225° |
| 2026-05-07 13:27 | 46.23353 | 6.10823 | 1399 ft | 8 kts | 263° |
| 2026-05-07 13:27 | 46.23379 | 6.10760 | 1402 ft | 7 kts | 314° |
| 2026-05-07 13:27 | 46.23416 | 6.10691 | 1394 ft | 9 kts | 283° |
| 2026-05-07 13:28 | 46.23386 | 6.10622 | 1395 ft | 8 kts | 225° |
| 2026-05-07 13:28 | 46.23348 | 6.10567 | 1398 ft | 11 kts | 225° |
| 2026-05-07 13:28 | 46.23266 | 6.10447 | 1396 ft | 18 kts | 225° |
| 2026-05-07 13:28 | 46.23181 | 6.10321 | 1393 ft | 16 kts | 226° |
| 2026-05-07 13:29 | 46.23111 | 6.10208 | 1399 ft | 15 kts | 227° |
| 2026-05-07 13:29 | 46.23023 | 6.10077 | 1400 ft | 21 kts | 225° |
| 2026-05-07 13:29 | 46.22918 | 6.09923 | 1404 ft | 22 kts | 225° |
| 2026-05-07 13:29 | 46.22811 | 6.09767 | 1398 ft | 22 kts | 225° |
| 2026-05-07 13:30 | 46.22704 | 6.09610 | 1404 ft | 22 kts | 225° |
| 2026-05-07 13:30 | 46.22597 | 6.09453 | 1397 ft | 20 kts | 228° |
| 2026-05-07 13:30 | 46.22551 | 6.09298 | 1405 ft | 12 kts | 263° |
| 2026-05-07 13:30 | 46.22551 | 6.09240 | 1412 ft | 0 kts | 274° |
| 2026-05-07 13:31 | 46.22571 | 6.09172 | 1416 ft | 14 kts | 311° |
| 2026-05-07 13:31 | 46.22631 | 6.09172 | 1418 ft | 8 kts | 40° |
| 2026-05-07 13:31 | 46.22641 | 6.09187 | 1416 ft | 11 kts | 45° |
| 2026-05-07 13:32 | 46.22886 | 6.09547 | 1416 ft | 86 kts | 45° |
| 2026-05-07 13:32 | 46.23451 | 6.10375 | 1396 ft | 143 kts | 45° |
| 2026-05-07 13:32 | 46.24252 | 6.11558 | 1457 ft | 180 kts | 45° |
| 2026-05-07 13:32 | 46.25103 | 6.12845 | 2215 ft | 175 kts | 45° |
| 2026-05-07 13:33 | 46.25950 | 6.14119 | 2956 ft | 179 kts | 44° |
| 2026-05-07 13:33 | 46.26867 | 6.15476 | 3315 ft | 199 kts | 44° |
| 2026-05-07 13:33 | 46.27898 | 6.16979 | 3601 ft | 221 kts | 44° |
| 2026-05-07 13:33 | 46.29026 | 6.18622 | 3925 ft | 244 kts | 44° |
| 2026-05-07 13:34 | 46.30274 | 6.20446 | 4002 ft | 257 kts | 44° |
| 2026-05-07 13:34 | 46.32782 | 6.24125 | 4012 ft | 257 kts | 44° |
| 2026-05-07 13:34 | 46.34058 | 6.25999 | 4622 ft | 262 kts | 44° |
| 2026-05-07 13:35 | 46.35315 | 6.27898 | 5610 ft | 263 kts | 51° |
| 2026-05-07 13:35 | 46.36109 | 6.30286 | 6451 ft | 267 kts | 78° |
| 2026-05-07 13:35 | 46.36139 | 6.32975 | 7273 ft | 270 kts | 103° |
| 2026-05-07 13:35 | 46.35459 | 6.35492 | 8114 ft | 271 kts | 124° |
| 2026-05-07 13:36 | 46.34176 | 6.37462 | 8956 ft | 270 kts | 147° |
| 2026-05-07 13:36 | 46.32472 | 6.38580 | 9810 ft | 271 kts | 169° |
| 2026-05-07 13:36 | 46.30601 | 6.38663 | 10566 ft | 272 kts | 192° |
| 2026-05-07 13:36 | 46.28831 | 6.37702 | 11301 ft | 274 kts | 210° |
| 2026-05-07 13:37 | 46.27153 | 6.36368 | 12062 ft | 277 kts | 210° |
| 2026-05-07 13:37 | 46.25457 | 6.35026 | 12842 ft | 279 kts | 210° |
| 2026-05-07 13:37 | 46.23697 | 6.33636 | 13182 ft | 300 kts | 210° |
| 2026-05-07 13:37 | 46.21802 | 6.32125 | 13372 ft | 322 kts | 212° |
| 2026-05-07 13:38 | 46.19944 | 6.30151 | 13628 ft | 340 kts | 223° |
| 2026-05-07 13:38 | 46.18328 | 6.27623 | 14179 ft | 346 kts | 231° |
| 2026-05-07 13:38 | 46.16795 | 6.24929 | 14818 ft | 349 kts | 231° |
| 2026-05-07 13:38 | 46.15236 | 6.22223 | 15467 ft | 352 kts | 231° |
| 2026-05-07 13:39 | 46.13659 | 6.19499 | 16083 ft | 355 kts | 231° |
| 2026-05-07 13:39 | 46.12067 | 6.16759 | 16724 ft | 358 kts | 231° |
| 2026-05-07 13:39 | 46.10460 | 6.13992 | 17372 ft | 361 kts | 231° |
| 2026-05-07 13:39 | 46.08839 | 6.11203 | 17990 ft | 365 kts | 231° |
| 2026-05-07 13:40 | 46.07206 | 6.08389 | 18552 ft | 368 kts | 231° |
| 2026-05-07 13:40 | 46.05560 | 6.05550 | 19103 ft | 371 kts | 231° |
| 2026-05-07 13:40 | 46.03763 | 6.02866 | 19617 ft | 375 kts | 221° |
| 2026-05-07 13:40 | 46.01590 | 6.00753 | 20137 ft | 380 kts | 209° |
| 2026-05-07 13:41 | 45.99119 | 5.99349 | 20656 ft | 386 kts | 197° |
| 2026-05-07 13:41 | 45.96447 | 5.98740 | 21160 ft | 393 kts | 185° |
| 2026-05-07 13:41 | 45.93704 | 5.98587 | 21661 ft | 396 kts | 185° |
| 2026-05-07 13:41 | 45.90943 | 5.98431 | 22153 ft | 398 kts | 185° |
| 2026-05-07 13:42 | 45.88167 | 5.98269 | 22631 ft | 401 kts | 185° |
| 2026-05-07 13:42 | 45.85367 | 5.98104 | 23109 ft | 404 kts | 185° |
| 2026-05-07 13:42 | 45.82547 | 5.97976 | 23583 ft | 407 kts | 185° |
| 2026-05-07 13:42 | 45.79703 | 5.97872 | 23972 ft | 410 kts | 185° |
| 2026-05-07 13:43 | 45.76844 | 5.97744 | 24365 ft | 412 kts | 185° |
| 2026-05-07 13:43 | 45.73968 | 5.97589 | 24760 ft | 414 kts | 186° |
| 2026-05-07 13:43 | 45.71086 | 5.97419 | 25154 ft | 416 kts | 186° |
| 2026-05-07 13:43 | 45.68185 | 5.97251 | 25545 ft | 418 kts | 186° |
| 2026-05-07 13:44 | 45.66259 | 5.97137 | 25816 ft | 420 kts | 186° |
| 2026-05-07 13:44 | 45.63331 | 5.96962 | 26179 ft | 422 kts | 186° |
| 2026-05-07 13:44 | 45.60394 | 5.96789 | 26544 ft | 424 kts | 186° |
| 2026-05-07 13:44 | 45.57446 | 5.96621 | 26930 ft | 425 kts | 186° |
| 2026-05-07 13:45 | 45.54478 | 5.96449 | 27276 ft | 428 kts | 186° |
| 2026-05-07 13:45 | 45.51498 | 5.96276 | 27631 ft | 430 kts | 186° |
| 2026-05-07 13:45 | 45.48507 | 5.96075 | 27975 ft | 430 kts | 189° |
| 2026-05-07 13:45 | 45.45562 | 5.95405 | 28276 ft | 428 kts | 197° |
| 2026-05-07 13:46 | 45.42645 | 5.94496 | 28652 ft | 430 kts | 196° |
| 2026-05-07 13:46 | 45.39721 | 5.93579 | 29038 ft | 431 kts | 197° |
| 2026-05-07 13:46 | 45.36785 | 5.92654 | 29333 ft | 433 kts | 197° |
| 2026-05-07 13:46 | 45.33833 | 5.91729 | 29638 ft | 434 kts | 197° |
| 2026-05-07 13:47 | 45.30880 | 5.90806 | 29937 ft | 436 kts | 197° |
| 2026-05-07 13:47 | 45.27908 | 5.89881 | 30203 ft | 438 kts | 197° |
| 2026-05-07 13:47 | 45.24925 | 5.88955 | 30464 ft | 439 kts | 197° |
| 2026-05-07 13:47 | 45.21943 | 5.88029 | 30785 ft | 439 kts | 197° |
| 2026-05-07 13:48 | 45.18964 | 5.87104 | 31189 ft | 437 kts | 197° |
| 2026-05-07 13:48 | 45.15999 | 5.86190 | 31578 ft | 435 kts | 197° |
| 2026-05-07 13:48 | 45.13049 | 5.85282 | 31981 ft | 434 kts | 197° |
| 2026-05-07 13:48 | 45.10103 | 5.84371 | 32380 ft | 432 kts | 197° |
| 2026-05-07 13:49 | 45.07175 | 5.83465 | 32720 ft | 430 kts | 197° |
| 2026-05-07 13:49 | 45.04253 | 5.82561 | 33080 ft | 429 kts | 197° |
| 2026-05-07 13:49 | 45.01343 | 5.81663 | 33429 ft | 428 kts | 197° |
| 2026-05-07 13:49 | 44.98440 | 5.80768 | 33843 ft | 426 kts | 197° |
| 2026-05-07 13:50 | 44.95550 | 5.79878 | 34197 ft | 424 kts | 197° |
| 2026-05-07 13:50 | 44.92667 | 5.78990 | 34502 ft | 424 kts | 197° |
| 2026-05-07 13:50 | 44.89790 | 5.78103 | 34779 ft | 423 kts | 197° |
| 2026-05-07 13:50 | 44.86912 | 5.77216 | 35043 ft | 423 kts | 197° |
| 2026-05-07 13:51 | 44.84039 | 5.76335 | 35304 ft | 423 kts | 197° |
| 2026-05-07 13:51 | 44.81168 | 5.75462 | 35558 ft | 423 kts | 197° |
| 2026-05-07 13:51 | 44.78293 | 5.74589 | 35804 ft | 422 kts | 197° |
| 2026-05-07 13:51 | 44.75423 | 5.73716 | 36038 ft | 422 kts | 197° |
| 2026-05-07 13:52 | 44.72551 | 5.72838 | 36263 ft | 422 kts | 197° |
| 2026-05-07 13:52 | 44.69688 | 5.71961 | 36479 ft | 422 kts | 196° |
| 2026-05-07 13:52 | 44.66819 | 5.71083 | 36709 ft | 422 kts | 196° |
| 2026-05-07 13:52 | 44.63955 | 5.70208 | 36917 ft | 422 kts | 196° |
| 2026-05-07 13:53 | 44.61085 | 5.69333 | 36950 ft | 422 kts | 197° |
| 2026-05-07 13:53 | 44.55345 | 5.67588 | 36952 ft | 422 kts | 196° |
| 2026-05-07 13:54 | 44.49611 | 5.65854 | 36954 ft | 422 kts | 196° |
| 2026-05-07 13:54 | 44.43878 | 5.64119 | 36954 ft | 421 kts | 196° |
| 2026-05-07 13:55 | 44.38166 | 5.62343 | 36959 ft | 419 kts | 200° |
| 2026-05-07 13:55 | 44.32741 | 5.59477 | 36961 ft | 417 kts | 205° |
| 2026-05-07 13:56 | 44.27352 | 5.56512 | 36960 ft | 416 kts | 205° |
| 2026-05-07 13:56 | 44.21959 | 5.53560 | 36965 ft | 416 kts | 205° |
| 2026-05-07 13:57 | 44.16570 | 5.50618 | 36974 ft | 416 kts | 205° |
| 2026-05-07 13:57 | 44.11189 | 5.47682 | 36980 ft | 415 kts | 205° |
| 2026-05-07 13:58 | 44.05805 | 5.44756 | 36974 ft | 415 kts | 205° |
| 2026-05-07 13:58 | 44.00428 | 5.41841 | 36989 ft | 415 kts | 205° |
| 2026-05-07 13:59 | 43.95058 | 5.38933 | 36984 ft | 414 kts | 205° |
| 2026-05-07 13:59 | 43.89689 | 5.36032 | 36974 ft | 414 kts | 205° |
| 2026-05-07 14:00 | 43.84320 | 5.33136 | 36980 ft | 414 kts | 205° |
| 2026-05-07 14:00 | 43.78960 | 5.30245 | 36980 ft | 413 kts | 205° |
| 2026-05-07 14:01 | 43.73599 | 5.27363 | 36981 ft | 413 kts | 205° |
| 2026-05-07 14:01 | 43.68244 | 5.24488 | 36979 ft | 411 kts | 205° |
| 2026-05-07 14:02 | 43.62899 | 5.21619 | 36978 ft | 412 kts | 205° |
| 2026-05-07 14:02 | 43.57557 | 5.18759 | 36984 ft | 412 kts | 205° |
| 2026-05-07 14:03 | 43.52216 | 5.15905 | 36993 ft | 411 kts | 205° |
| 2026-05-07 14:03 | 43.46880 | 5.13056 | 37018 ft | 411 kts | 205° |
| 2026-05-07 14:04 | 43.41554 | 5.10224 | 37020 ft | 410 kts | 205° |
| 2026-05-07 14:04 | 43.36511 | 5.06706 | 37018 ft | 404 kts | 217° |
| 2026-05-07 14:05 | 43.31882 | 5.02318 | 37018 ft | 404 kts | 217° |
| 2026-05-07 14:05 | 43.27254 | 4.97947 | 37020 ft | 404 kts | 217° |
| 2026-05-07 14:06 | 43.22627 | 4.93593 | 37020 ft | 403 kts | 217° |
| 2026-05-07 14:06 | 43.17997 | 4.89257 | 37020 ft | 403 kts | 217° |
| 2026-05-07 14:07 | 43.13376 | 4.84937 | 37022 ft | 402 kts | 217° |
| 2026-05-07 14:07 | 43.08758 | 4.80624 | 37021 ft | 401 kts | 217° |
| 2026-05-07 14:08 | 43.04287 | 4.76094 | 37021 ft | 399 kts | 223° |
| 2026-05-07 14:08 | 43.00151 | 4.71057 | 37022 ft | 398 kts | 223° |
| 2026-05-07 14:09 | 42.96036 | 4.66081 | 37022 ft | 398 kts | 223° |
| 2026-05-07 14:09 | 42.91863 | 4.61060 | 37022 ft | 397 kts | 223° |
| 2026-05-07 14:10 | 42.87728 | 4.56079 | 37023 ft | 396 kts | 223° |
| 2026-05-07 14:10 | 42.83619 | 4.51151 | 37020 ft | 396 kts | 223° |
| 2026-05-07 14:11 | 42.79492 | 4.46192 | 37019 ft | 396 kts | 223° |
| 2026-05-07 14:11 | 42.75361 | 4.41243 | 37019 ft | 395 kts | 223° |
| 2026-05-07 14:12 | 42.71232 | 4.36315 | 37017 ft | 395 kts | 223° |
| 2026-05-07 14:12 | 42.67099 | 4.31393 | 37019 ft | 395 kts | 223° |
| 2026-05-07 14:13 | 42.62979 | 4.26471 | 37018 ft | 394 kts | 223° |
| 2026-05-07 14:13 | 42.58856 | 4.21558 | 37019 ft | 394 kts | 223° |
| 2026-05-07 14:14 | 42.54730 | 4.16669 | 37016 ft | 394 kts | 222° |
| 2026-05-07 14:14 | 42.50610 | 4.11785 | 37019 ft | 393 kts | 222° |
| 2026-05-07 14:15 | 42.46488 | 4.06920 | 37018 ft | 393 kts | 222° |
| 2026-05-07 14:15 | 42.42370 | 4.02058 | 37018 ft | 393 kts | 222° |
| 2026-05-07 14:16 | 42.38250 | 3.97211 | 37018 ft | 392 kts | 222° |
| 2026-05-07 14:16 | 42.34137 | 3.92377 | 37019 ft | 392 kts | 222° |
| 2026-05-07 14:17 | 42.30025 | 3.87548 | 37020 ft | 391 kts | 222° |
| 2026-05-07 14:17 | 42.26005 | 3.82613 | 37016 ft | 390 kts | 229° |
| 2026-05-07 14:18 | 42.22805 | 3.76707 | 37018 ft | 390 kts | 234° |
| 2026-05-07 14:18 | 42.19669 | 3.70750 | 37017 ft | 389 kts | 234° |
| 2026-05-07 14:19 | 42.16526 | 3.64803 | 37016 ft | 389 kts | 233° |
| 2026-05-07 14:19 | 42.13374 | 3.58864 | 37013 ft | 389 kts | 233° |
| 2026-05-07 14:20 | 42.10231 | 3.52926 | 37020 ft | 389 kts | 233° |
| 2026-05-07 14:20 | 42.07086 | 3.46991 | 37016 ft | 389 kts | 233° |
| 2026-05-07 14:21 | 42.03936 | 3.41070 | 37013 ft | 389 kts | 233° |
| 2026-05-07 14:21 | 42.00779 | 3.35153 | 37012 ft | 389 kts | 233° |
| 2026-05-07 14:22 | 41.97618 | 3.29247 | 37011 ft | 389 kts | 233° |
| 2026-05-07 14:22 | 41.94459 | 3.23342 | 37010 ft | 389 kts | 233° |
| 2026-05-07 14:23 | 41.91299 | 3.17442 | 37010 ft | 389 kts | 233° |
| 2026-05-07 14:23 | 41.88136 | 3.11547 | 37009 ft | 389 kts | 233° |
| 2026-05-07 14:24 | 41.84969 | 3.05656 | 37012 ft | 389 kts | 233° |
| 2026-05-07 14:24 | 41.81797 | 2.99774 | 37016 ft | 389 kts | 233° |
| 2026-05-07 14:25 | 41.78624 | 2.93906 | 37014 ft | 389 kts | 233° |
| 2026-05-07 14:25 | 41.75445 | 2.88035 | 37015 ft | 389 kts | 233° |
| 2026-05-07 14:26 | 41.72797 | 2.83162 | 37012 ft | 389 kts | 232° |
| 2026-05-07 14:26 | 41.69611 | 2.77297 | 37014 ft | 390 kts | 232° |
| 2026-05-07 14:27 | 41.66388 | 2.71474 | 37008 ft | 389 kts | 231° |
| 2026-05-07 14:27 | 41.63056 | 2.65769 | 37009 ft | 389 kts | 230° |
| 2026-05-07 14:28 | 41.59701 | 2.60086 | 37007 ft | 389 kts | 230° |
| 2026-05-07 14:28 | 41.56360 | 2.54391 | 37009 ft | 389 kts | 231° |
| 2026-05-07 14:29 | 41.53030 | 2.48687 | 37009 ft | 390 kts | 231° |
| 2026-05-07 14:29 | 41.49696 | 2.42987 | 37012 ft | 390 kts | 230° |
| 2026-05-07 14:30 | 41.46356 | 2.37292 | 37013 ft | 390 kts | 230° |
| 2026-05-07 14:30 | 41.43014 | 2.31601 | 37016 ft | 390 kts | 230° |
| 2026-05-07 14:31 | 41.39664 | 2.25921 | 37018 ft | 390 kts | 230° |
| 2026-05-07 14:31 | 41.36311 | 2.20244 | 37019 ft | 390 kts | 230° |
| 2026-05-07 14:32 | 41.32959 | 2.14577 | 37019 ft | 390 kts | 230° |
| 2026-05-07 14:32 | 41.29574 | 2.08945 | 37016 ft | 390 kts | 228° |
| 2026-05-07 14:33 | 41.25979 | 2.03555 | 37015 ft | 389 kts | 226° |
| 2026-05-07 14:33 | 41.22304 | 1.98262 | 37016 ft | 390 kts | 226° |
| 2026-05-07 14:34 | 41.18653 | 1.92944 | 37011 ft | 390 kts | 226° |
| 2026-05-07 14:34 | 41.15023 | 1.87587 | 37004 ft | 390 kts | 227° |
| 2026-05-07 14:35 | 41.11427 | 1.82259 | 37001 ft | 390 kts | 227° |
| 2026-05-07 14:35 | 41.07792 | 1.76912 | 36993 ft | 390 kts | 226° |
| 2026-05-07 14:36 | 41.04150 | 1.71581 | 36989 ft | 390 kts | 226° |
| 2026-05-07 14:36 | 41.00502 | 1.66243 | 36986 ft | 391 kts | 226° |
| 2026-05-07 14:37 | 40.96836 | 1.60866 | 36985 ft | 391 kts | 226° |
| 2026-05-07 14:37 | 40.91360 | 1.52872 | 36984 ft | 391 kts | 226° |
| 2026-05-07 14:38 | 40.87697 | 1.47545 | 36984 ft | 391 kts | 226° |
| 2026-05-07 14:38 | 40.84032 | 1.42219 | 36981 ft | 392 kts | 226° |
| 2026-05-07 14:39 | 40.80362 | 1.36897 | 36978 ft | 392 kts | 226° |
| 2026-05-07 14:39 | 40.76687 | 1.31573 | 36972 ft | 392 kts | 226° |
| 2026-05-07 14:40 | 40.73002 | 1.26257 | 36971 ft | 393 kts | 226° |
| 2026-05-07 14:40 | 40.69311 | 1.20942 | 36975 ft | 393 kts | 226° |
| 2026-05-07 14:41 | 40.65623 | 1.15611 | 36974 ft | 394 kts | 226° |
| 2026-05-07 14:41 | 40.61933 | 1.10284 | 36978 ft | 394 kts | 226° |
| 2026-05-07 14:42 | 40.58230 | 1.04969 | 36980 ft | 394 kts | 226° |
| 2026-05-07 14:42 | 40.54524 | 0.99661 | 36977 ft | 394 kts | 226° |
| 2026-05-07 14:43 | 40.50813 | 0.94350 | 36977 ft | 394 kts | 226° |
| 2026-05-07 14:43 | 40.47099 | 0.89050 | 36976 ft | 394 kts | 226° |
| 2026-05-07 14:44 | 40.43383 | 0.83755 | 36976 ft | 394 kts | 226° |
| 2026-05-07 14:44 | 40.39688 | 0.78502 | 36977 ft | 394 kts | 226° |
| 2026-05-07 14:45 | 40.35974 | 0.73225 | 36831 ft | 393 kts | 226° |
| 2026-05-07 14:45 | 40.34122 | 0.70601 | 36206 ft | 391 kts | 226° |
| 2026-05-07 14:45 | 40.32276 | 0.67987 | 35596 ft | 390 kts | 225° |
| 2026-05-07 14:46 | 40.30439 | 0.65390 | 35007 ft | 387 kts | 225° |
| 2026-05-07 14:46 | 40.28611 | 0.62809 | 34428 ft | 385 kts | 224° |
| 2026-05-07 14:46 | 40.26797 | 0.60245 | 33823 ft | 383 kts | 224° |
| 2026-05-07 14:46 | 40.24988 | 0.57684 | 33033 ft | 383 kts | 224° |
| 2026-05-07 14:47 | 40.23170 | 0.55113 | 32147 ft | 386 kts | 224° |
| 2026-05-07 14:47 | 40.21344 | 0.52540 | 31482 ft | 385 kts | 224° |
| 2026-05-07 14:47 | 40.19525 | 0.49982 | 30838 ft | 382 kts | 224° |
| 2026-05-07 14:47 | 40.17719 | 0.47443 | 30220 ft | 381 kts | 225° |
| 2026-05-07 14:48 | 40.15921 | 0.44917 | 29556 ft | 379 kts | 225° |
| 2026-05-07 14:48 | 40.14132 | 0.42404 | 28863 ft | 377 kts | 225° |
| 2026-05-07 14:48 | 40.12346 | 0.39901 | 28191 ft | 375 kts | 224° |
| 2026-05-07 14:48 | 40.10568 | 0.37415 | 27525 ft | 374 kts | 224° |
| 2026-05-07 14:49 | 40.08797 | 0.34940 | 26871 ft | 373 kts | 224° |
| 2026-05-07 14:49 | 40.07030 | 0.32468 | 26242 ft | 371 kts | 224° |
| 2026-05-07 14:49 | 40.05273 | 0.30008 | 25630 ft | 370 kts | 224° |
| 2026-05-07 14:49 | 40.03522 | 0.27556 | 25022 ft | 369 kts | 225° |
| 2026-05-07 14:50 | 40.01773 | 0.25109 | 24427 ft | 368 kts | 225° |
| 2026-05-07 14:50 | 40.00027 | 0.22670 | 23844 ft | 367 kts | 225° |
| 2026-05-07 14:50 | 39.98284 | 0.20241 | 23238 ft | 367 kts | 225° |
| 2026-05-07 14:50 | 39.96545 | 0.17816 | 22615 ft | 365 kts | 225° |
| 2026-05-07 14:51 | 39.94813 | 0.15403 | 22028 ft | 364 kts | 225° |
| 2026-05-07 14:51 | 39.93094 | 0.13005 | 21479 ft | 362 kts | 225° |
| 2026-05-07 14:51 | 39.91378 | 0.10614 | 20937 ft | 360 kts | 225° |
| 2026-05-07 14:51 | 39.89669 | 0.08239 | 20431 ft | 358 kts | 225° |
| 2026-05-07 14:52 | 39.87968 | 0.05880 | 19921 ft | 357 kts | 225° |
| 2026-05-07 14:52 | 39.86274 | 0.03532 | 19431 ft | 355 kts | 225° |
| 2026-05-07 14:52 | 39.84590 | 0.01198 | 18951 ft | 353 kts | 225° |
| 2026-05-07 14:52 | 39.82909 | -0.01131 | 18479 ft | 352 kts | 225° |
| 2026-05-07 14:53 | 39.81237 | -0.03442 | 18000 ft | 350 kts | 225° |
| 2026-05-07 14:53 | 39.79571 | -0.05740 | 17490 ft | 349 kts | 225° |
| 2026-05-07 14:53 | 39.77908 | -0.08031 | 16991 ft | 347 kts | 225° |
| 2026-05-07 14:53 | 39.76255 | -0.10305 | 16511 ft | 346 kts | 225° |
| 2026-05-07 14:54 | 39.74610 | -0.12571 | 16053 ft | 344 kts | 225° |
| 2026-05-07 14:54 | 39.72987 | -0.14837 | 15601 ft | 342 kts | 229° |
| 2026-05-07 14:54 | 39.71795 | -0.17493 | 15168 ft | 342 kts | 250° |
| 2026-05-07 14:54 | 39.71429 | -0.20529 | 14727 ft | 343 kts | 271° |
| 2026-05-07 14:55 | 39.71907 | -0.23390 | 14331 ft | 343 kts | 292° |
| 2026-05-07 14:55 | 39.73135 | -0.26043 | 13906 ft | 343 kts | 303° |
| 2026-05-07 14:55 | 39.74390 | -0.28665 | 13465 ft | 341 kts | 298° |
| 2026-05-07 14:55 | 39.75477 | -0.31386 | 13011 ft | 338 kts | 295° |
| 2026-05-07 14:56 | 39.76404 | -0.34180 | 12548 ft | 336 kts | 290° |
| 2026-05-07 14:56 | 39.77166 | -0.37045 | 12088 ft | 334 kts | 286° |
| 2026-05-07 14:56 | 39.77757 | -0.39960 | 11625 ft | 333 kts | 282° |
| 2026-05-07 14:56 | 39.78171 | -0.42910 | 11166 ft | 332 kts | 277° |
| 2026-05-07 14:57 | 39.78404 | -0.45888 | 10713 ft | 330 kts | 273° |
| 2026-05-07 14:57 | 39.78464 | -0.48868 | 10271 ft | 329 kts | 269° |
| 2026-05-07 14:57 | 39.78348 | -0.51829 | 9918 ft | 323 kts | 264° |
| 2026-05-07 14:57 | 39.78076 | -0.54622 | 9756 ft | 302 kts | 260° |
| 2026-05-07 14:58 | 39.77678 | -0.57246 | 9299 ft | 291 kts | 255° |
| 2026-05-07 14:58 | 39.77150 | -0.59753 | 8790 ft | 286 kts | 251° |
| 2026-05-07 14:58 | 39.76498 | -0.62186 | 8450 ft | 283 kts | 247° |
| 2026-05-07 14:58 | 39.75743 | -0.64537 | 8090 ft | 281 kts | 243° |
| 2026-05-07 14:59 | 39.74878 | -0.66808 | 7714 ft | 280 kts | 240° |
| 2026-05-07 14:59 | 39.73905 | -0.68993 | 7343 ft | 279 kts | 235° |
| 2026-05-07 14:59 | 39.72825 | -0.71076 | 7028 ft | 277 kts | 231° |
| 2026-05-07 14:59 | 39.71653 | -0.73052 | 6693 ft | 276 kts | 227° |
| 2026-05-07 15:00 | 39.70392 | -0.74917 | 6338 ft | 274 kts | 224° |
| 2026-05-07 15:00 | 39.69046 | -0.76662 | 6016 ft | 271 kts | 219° |
| 2026-05-07 15:00 | 39.67499 | -0.78003 | 5958 ft | 267 kts | 201° |
| 2026-05-07 15:00 | 39.65739 | -0.78722 | 5962 ft | 265 kts | 186° |
| 2026-05-07 15:01 | 39.63909 | -0.78786 | 5964 ft | 262 kts | 171° |
| 2026-05-07 15:01 | 39.62128 | -0.78235 | 5395 ft | 266 kts | 155° |
| 2026-05-07 15:01 | 39.60562 | -0.77054 | 4862 ft | 255 kts | 139° |
| 2026-05-07 15:01 | 39.59380 | -0.75454 | 4525 ft | 239 kts | 124° |
| 2026-05-07 15:02 | 39.58573 | -0.73619 | 4211 ft | 230 kts | 115° |
| 2026-05-07 15:02 | 39.57884 | -0.71788 | 3903 ft | 222 kts | 115° |
| 2026-05-07 15:02 | 39.57219 | -0.70026 | 3612 ft | 213 kts | 115° |
| 2026-05-07 15:02 | 39.56570 | -0.68307 | 3340 ft | 212 kts | 115° |
| 2026-05-07 15:03 | 39.55923 | -0.66596 | 3058 ft | 209 kts | 114° |
| 2026-05-07 15:03 | 39.55298 | -0.64944 | 2800 ft | 198 kts | 115° |
| 2026-05-07 15:03 | 39.54708 | -0.63385 | 2518 ft | 187 kts | 115° |
| 2026-05-07 15:03 | 39.54159 | -0.61937 | 2275 ft | 172 kts | 115° |
| 2026-05-07 15:04 | 39.53657 | -0.60615 | 2077 ft | 155 kts | 115° |
| 2026-05-07 15:04 | 39.53204 | -0.59419 | 1851 ft | 143 kts | 114° |
| 2026-05-07 15:04 | 39.52778 | -0.58288 | 1639 ft | 136 kts | 114° |
| 2026-05-07 15:04 | 39.52359 | -0.57196 | 1459 ft | 136 kts | 115° |
| 2026-05-07 15:05 | 39.51940 | -0.56105 | 1344 ft | 134 kts | 115° |
| 2026-05-07 15:05 | 39.51523 | -0.55022 | 1075 ft | 134 kts | 116° |
| 2026-05-07 15:05 | 39.51120 | -0.53966 | 908 ft | 133 kts | 115° |
| 2026-05-07 15:05 | 39.50712 | -0.52868 | 748 ft | 133 kts | 115° |
| 2026-05-07 15:06 | 39.50306 | -0.51793 | 556 ft | 131 kts | 114° |
| 2026-05-07 15:06 | 39.49906 | -0.50736 | 392 ft | 130 kts | 113° |
| 2026-05-07 15:06 | 39.49516 | -0.49706 | 244 ft | 128 kts | 114° |
| 2026-05-07 15:06 | 39.49149 | -0.48731 | 217 ft | 98 kts | 116° |
| 2026-05-07 15:07 | 39.48925 | -0.48142 | 212 ft | 50 kts | 116° |
| 2026-05-07 15:07 | 39.48802 | -0.47818 | 213 ft | 41 kts | 116° |
| 2026-05-07 15:07 | 39.48679 | -0.47497 | 215 ft | 33 kts | 117° |
| 2026-05-07 15:07 | 39.48654 | -0.47323 | 212 ft | 25 kts | 82° |
| 2026-05-07 15:08 | 39.48670 | -0.47258 | 212 ft | 0 kts | 58° |
| 2026-05-07 15:08 | 39.48672 | -0.47254 | 211 ft | 1 kts | 58° |
| 2026-05-07 15:08 | 39.48675 | -0.47246 | 215 ft | 2 kts | 58° |
| 2026-05-07 15:09 | 39.48698 | -0.47211 | 210 ft | 11 kts | 43° |
| 2026-05-07 15:09 | 39.48779 | -0.47184 | 215 ft | 13 kts | 346° |
| 2026-05-07 15:09 | 39.48858 | -0.47227 | 212 ft | 12 kts | 336° |
| 2026-05-07 15:09 | 39.48923 | -0.47256 | 209 ft | 9 kts | 1° |
| 2026-05-07 15:10 | 39.48975 | -0.47236 | 211 ft | 7 kts | 17° |
| 2026-05-07 15:10 | 39.49005 | -0.47224 | 209 ft | 2 kts | 16° |
| 2026-05-07 15:10 | 39.49007 | -0.47223 | 209 ft | 0 kts | 17° |